Time;durP1;ratioP1;P1;durP2;ratioP2;P2;SDS_P1;SDS_P2;PMS_P1;PMS_P2;Temp;Humidity;BMP_temperature;BMP_pressure;BME280_temperature;BME280_humidity;BME280_pressure;Samples;Min_cycle;Max_cycle;Signal;HPM_P1;HPM_P2
2022/03/13 00:00:38;;;;;;;13.40;10.77;;;9.90;90.90;;;;;;5026053;28;20457;-40
2022/03/13 00:03:09;;;;;;;10.80;9.47;;;10.00;90.40;;;;;;5028885;28;20500;-40
2022/03/13 00:05:38;;;;;;;11.87;9.60;;;9.90;90.70;;;;;;5017599;28;20470;-43
2022/03/13 00:08:23;;;;;;;12.40;10.20;;;10.00;90.40;;;;;;5028196;28;20512;-40
2022/03/13 00:10:55;;;;;;;16.40;10.37;;;9.90;90.70;;;;;;5025757;28;20921;-41
2022/03/13 00:13:21;;;;;;;11.67;10.00;;;10.00;90.00;;;;;;5028733;28;20504;-40
2022/03/13 00:15:48;;;;;;;13.93;10.17;;;10.00;90.10;;;;;;5027812;28;20529;-42
2022/03/13 00:18:14;;;;;;;15.40;10.00;;;10.20;90.20;;;;;;5028678;28;20203;-40
2022/03/13 00:20:40;;;;;;;12.50;10.57;;;9.90;90.50;;;;;;5005907;28;20944;-40
2022/03/13 00:23:06;;;;;;;11.47;10.20;;;9.80;90.50;;;;;;5027326;28;20187;-44
2022/03/13 00:25:32;;;;;;;12.10;10.50;;;10.00;89.90;;;;;;5029204;28;20194;-40
2022/03/13 00:27:58;;;;;;;14.93;10.33;;;9.80;90.20;;;;;;5028995;28;20755;-42
2022/03/13 00:30:24;;;;;;;12.97;9.73;;;9.80;90.00;;;;;;5026957;28;20537;-41
2022/03/13 00:32:50;;;;;;;11.60;9.80;;;9.90;90.10;;;;;;5028810;28;20194;-40
2022/03/13 00:35:16;;;;;;;13.30;10.53;;;9.90;90.10;;;;;;5019566;28;20210;-40
2022/03/13 00:37:41;;;;;;;13.13;10.47;;;9.90;89.60;;;;;;5025143;28;20563;-41
2022/03/13 00:40:08;;;;;;;11.23;9.07;;;9.80;89.70;;;;;;5027905;28;20429;-41
2022/03/13 00:42:34;;;;;;;11.43;10.00;;;9.80;90.20;;;;;;5028690;28;20623;-40
2022/03/13 00:45:00;;;;;;;11.47;10.27;;;9.70;90.00;;;;;;5027150;28;20520;-40
2022/03/13 00:47:26;;;;;;;13.43;10.40;;;9.70;89.10;;;;;;5024677;28;20175;-41
2022/03/13 00:49:51;;;;;;;12.20;10.10;;;9.70;88.80;;;;;;5022449;28;20434;-40
2022/03/13 00:52:17;;;;;;;14.60;10.60;;;9.60;88.00;;;;;;5024863;28;20189;-40
2022/03/13 00:54:43;;;;;;;12.30;9.90;;;9.30;88.10;;;;;;5025700;28;20601;-40
2022/03/13 00:57:09;;;;;;;12.57;9.77;;;9.40;86.00;;;;;;5028151;28;20646;-40
2022/03/13 00:59:35;;;;;;;10.90;9.00;;;9.40;86.10;;;;;;5032719;28;20420;-40
2022/03/13 01:02:01;;;;;;;13.43;9.60;;;9.60;86.00;;;;;;5023452;28;20781;-40
2022/03/13 01:04:27;;;;;;;11.07;9.20;;;9.40;84.40;;;;;;5021455;28;20673;-43
2022/03/13 01:06:52;;;;;;;12.30;9.47;;;9.40;84.00;;;;;;5016096;28;20430;-40
2022/03/13 01:09:18;;;;;;;11.63;9.00;;;9.20;83.50;;;;;;5025920;28;20194;-40
2022/03/13 01:11:44;;;;;;;10.83;9.20;;;9.50;82.10;;;;;;5026019;28;20233;-41
2022/03/13 01:14:10;;;;;;;15.00;9.70;;;9.40;81.20;;;;;;5027952;28;20194;-40
2022/03/13 01:16:39;;;;;;;11.30;9.30;;;9.40;80.50;;;;;;5026565;28;20190;-41
2022/03/13 01:19:06;;;;;;;11.03;9.40;;;9.50;79.90;;;;;;5027700;28;20457;-42
2022/03/13 01:21:37;;;;;;;12.63;9.17;;;9.30;78.00;;;;;;5021690;28;20822;-40
2022/03/13 01:24:06;;;;;;;10.63;9.30;;;9.50;77.80;;;;;;5028266;28;20445;-41
2022/03/13 01:26:36;;;;;;;11.40;9.17;;;9.40;76.40;;;;;;5027578;28;20444;-40
2022/03/13 01:29:11;;;;;;;12.10;9.60;;;9.50;75.00;;;;;;5027941;28;20557;-40
2022/03/13 01:31:39;;;;;;;13.20;9.73;;;9.50;74.30;;;;;;5027209;28;21594;-40
2022/03/13 01:34:10;;;;;;;12.50;9.40;;;9.30;74.20;;;;;;5027706;28;20421;-40
2022/03/13 01:36:36;;;;;;;11.70;8.67;;;9.40;73.10;;;;;;5019145;28;20844;-40
2022/03/13 01:39:03;;;;;;;12.80;9.47;;;9.50;73.00;;;;;;5027489;28;20456;-40
2022/03/13 01:41:29;;;;;;;12.07;8.90;;;9.50;72.80;;;;;;5027072;28;20436;-40
2022/03/13 01:43:57;;;;;;;11.60;8.80;;;9.40;72.20;;;;;;5027315;28;20421;-41
2022/03/13 01:46:23;;;;;;;10.73;8.50;;;9.40;71.80;;;;;;5042700;28;20428;-41
2022/03/13 01:48:56;;;;;;;11.00;9.00;;;9.50;71.90;;;;;;5046172;28;21058;-40
2022/03/13 01:51:24;;;;;;;9.80;8.00;;;9.40;70.60;;;;;;5021313;28;20494;-40
2022/03/13 01:53:56;;;;;;;11.17;8.80;;;9.20;70.20;;;;;;5025885;28;20433;-40
2022/03/13 01:56:22;;;;;;;10.93;9.23;;;9.20;68.90;;;;;;5025029;28;20465;-40
2022/03/13 01:58:52;;;;;;;10.47;8.30;;;9.40;69.60;;;;;;5027172;28;20461;-40
2022/03/13 02:01:19;;;;;;;12.57;9.50;;;9.30;69.50;;;;;;5027089;28;20788;-40
2022/03/13 02:03:45;;;;;;;11.00;8.07;;;9.40;68.20;;;;;;5027325;28;20425;-40
2022/03/13 02:06:11;;;;;;;11.43;9.27;;;9.30;67.10;;;;;;5016527;28;20433;-40
2022/03/13 02:08:37;;;;;;;17.20;8.60;;;9.20;66.90;;;;;;5023130;28;20421;-41
2022/03/13 02:11:04;;;;;;;11.10;9.07;;;9.40;67.20;;;;;;5026314;28;20425;-41
2022/03/13 02:13:31;;;;;;;11.67;9.30;;;9.20;66.10;;;;;;5020646;28;20452;-41
2022/03/13 02:15:57;;;;;;;11.70;9.67;;;9.20;66.40;;;;;;5027381;28;20528;-41
2022/03/13 02:18:23;;;;;;;11.30;8.80;;;9.20;66.70;;;;;;5026996;28;20525;-41
2022/03/13 02:20:49;;;;;;;12.07;8.80;;;9.30;65.80;;;;;;5018532;28;21027;-40
2022/03/13 02:23:36;;;;;;;13.70;9.63;;;9.30;65.70;;;;;;5026571;28;20421;-42
2022/03/13 02:26:03;;;;;;;10.27;8.93;;;9.00;66.20;;;;;;5031276;28;20260;-41
2022/03/13 02:28:31;;;;;;;11.60;8.80;;;9.00;66.00;;;;;;5030959;28;20454;-41
2022/03/13 02:31:03;;;;;;;12.43;9.30;;;9.00;65.40;;;;;;5030491;28;20837;-43
2022/03/13 02:33:29;;;;;;;9.20;8.30;;;9.10;66.00;;;;;;5032939;28;20442;-40
2022/03/13 02:36:04;;;;;;;10.77;8.40;;;8.90;66.80;;;;;;5037761;28;20469;-42
2022/03/13 02:38:31;;;;;;;14.73;9.30;;;8.70;69.10;;;;;;5026057;28;20484;-41
2022/03/13 02:40:57;;;;;;;13.57;10.07;;;8.70;67.80;;;;;;5030013;28;20416;-41
2022/03/13 02:43:23;;;;;;;10.80;8.83;;;8.90;67.10;;;;;;5030846;28;20467;-42
2022/03/13 02:45:52;;;;;;;13.00;8.33;;;8.90;66.90;;;;;;5030812;28;20425;-40
2022/03/13 02:48:18;;;;;;;13.73;9.40;;;9.10;67.00;;;;;;5030836;28;20495;-40
2022/03/13 02:50:45;;;;;;;11.10;9.00;;;9.00;65.20;;;;;;5023421;28;20871;-41
2022/03/13 02:53:12;;;;;;;11.73;8.53;;;9.00;64.20;;;;;;5025794;28;20441;-41
2022/03/13 02:55:38;;;;;;;11.20;8.93;;;9.20;63.90;;;;;;5029252;28;20429;-41
2022/03/13 02:58:04;;;;;;;12.07;9.00;;;9.00;64.20;;;;;;5029359;28;20518;-40
2022/03/13 03:00:49;;;;;;;14.93;9.40;;;9.20;64.20;;;;;;5029570;28;20197;-40
2022/03/13 03:03:17;;;;;;;13.93;9.23;;;9.10;63.10;;;;;;5030414;28;20844;-41
2022/03/13 03:05:44;;;;;;;11.47;9.40;;;9.20;63.50;;;;;;5024057;28;20430;-40
2022/03/13 03:08:10;;;;;;;13.60;10.03;;;9.10;63.70;;;;;;5025872;28;20444;-42
2022/03/13 03:10:36;;;;;;;17.37;10.10;;;9.00;63.00;;;;;;5029324;28;20421;-41
2022/03/13 03:13:03;;;;;;;10.50;9.43;;;8.90;62.30;;;;;;5028971;28;20840;-42
2022/03/13 03:15:29;;;;;;;10.90;9.07;;;8.90;62.00;;;;;;5029846;28;20807;-41
2022/03/13 03:17:55;;;;;;;12.00;9.23;;;8.90;63.10;;;;;;5030316;28;20464;-40
2022/03/13 03:20:21;;;;;;;11.53;9.73;;;8.90;62.30;;;;;;5027711;28;20577;-41
2022/03/13 03:22:51;;;;;;;10.73;9.60;;;8.90;62.10;;;;;;5022285;28;20983;-41
2022/03/13 03:25:23;;;;;;;14.20;9.47;;;8.70;62.20;;;;;;5029015;28;20418;-43
2022/03/13 03:27:50;;;;;;;13.20;9.60;;;8.80;63.10;;;;;;5017618;28;20470;-43
2022/03/13 03:30:19;;;;;;;12.10;8.63;;;9.10;64.00;;;;;;5029129;28;20436;-42
2022/03/13 03:32:45;;;;;;;10.97;9.20;;;8.90;63.40;;;;;;5029669;28;20429;-42
2022/03/13 03:35:10;;;;;;;12.83;9.67;;;8.70;63.60;;;;;;5029196;28;20444;-41
2022/03/13 03:37:36;;;;;;;12.20;9.13;;;8.60;63.30;;;;;;5019566;28;20352;-41
2022/03/13 03:40:04;;;;;;;11.50;8.73;;;8.70;61.60;;;;;;5029376;28;20665;-41
2022/03/13 03:42:30;;;;;;;13.23;9.10;;;8.90;59.40;;;;;;5029180;28;20194;-41
2022/03/13 03:44:56;;;;;;;11.23;9.33;;;8.80;58.50;;;;;;5028605;28;20429;-41
2022/03/13 03:47:23;;;;;;;12.40;9.50;;;8.80;57.40;;;;;;5029507;28;20244;-40
2022/03/13 03:49:49;;;;;;;12.90;8.83;;;8.80;56.90;;;;;;5027877;28;20269;-40
2022/03/13 03:52:14;;;;;;;12.27;8.30;;;8.80;56.60;;;;;;5021941;28;20911;-40
2022/03/13 03:54:40;;;;;;;10.17;8.63;;;8.80;56.20;;;;;;5028396;28;20270;-43
2022/03/13 03:57:06;;;;;;;13.17;9.10;;;8.70;55.90;;;;;;5028782;28;20198;-41
2022/03/13 03:59:31;;;;;;;12.53;9.43;;;8.70;56.60;;;;;;5029270;28;20469;-41
2022/03/13 04:01:57;;;;;;;12.60;9.20;;;8.80;55.90;;;;;;5027933;28;20205;-42
2022/03/13 04:04:23;;;;;;;11.73;8.43;;;8.70;55.30;;;;;;5029253;28;20657;-41
2022/03/13 04:06:49;;;;;;;13.33;8.60;;;8.70;55.50;;;;;;5020034;28;20674;-41
2022/03/13 04:09:15;;;;;;;12.43;9.43;;;8.70;55.20;;;;;;5022996;28;20193;-41
2022/03/13 04:11:41;;;;;;;11.70;8.10;;;8.80;55.70;;;;;;5026945;28;20190;-40
2022/03/13 04:14:09;;;;;;;10.20;8.83;;;8.80;55.50;;;;;;5029094;28;20420;-43
2022/03/13 04:16:34;;;;;;;11.63;8.17;;;8.70;55.00;;;;;;5029044;28;20410;-42
2022/03/13 04:19:00;;;;;;;10.77;9.50;;;8.90;54.90;;;;;;5028865;28;20990;-41
2022/03/13 04:21:26;;;;;;;12.27;9.40;;;8.70;55.30;;;;;;5021952;28;20195;-43
2022/03/13 04:23:53;;;;;;;12.60;9.43;;;8.60;55.10;;;;;;5025703;28;20532;-41
2022/03/13 04:26:20;;;;;;;14.20;10.00;;;8.80;54.80;;;;;;5027362;28;20641;-41
2022/03/13 04:28:46;;;;;;;11.73;8.53;;;8.70;55.00;;;;;;5028691;28;20418;-40
2022/03/13 04:31:12;;;;;;;11.13;8.73;;;8.80;55.30;;;;;;5028155;28;20425;-42
2022/03/13 04:33:37;;;;;;;12.77;9.63;;;8.80;54.90;;;;;;5028570;28;20451;-40
2022/03/13 04:36:12;;;;;;;10.50;8.47;;;8.70;54.90;;;;;;5026806;28;20210;-41
2022/03/13 04:38:38;;;;;;;11.23;8.57;;;8.80;54.80;;;;;;5020507;28;20213;-41
2022/03/13 04:41:04;;;;;;;12.60;9.33;;;8.90;54.70;;;;;;5028135;28;20418;-41
2022/03/13 04:43:30;;;;;;;11.93;8.80;;;9.00;54.30;;;;;;5028908;28;20925;-40
2022/03/13 04:45:55;;;;;;;13.93;8.30;;;8.90;53.90;;;;;;5026535;28;20425;-41
2022/03/13 04:48:21;;;;;;;10.70;7.87;;;8.60;54.20;;;;;;5028480;28;20194;-40
2022/03/13 04:50:47;;;;;;;10.77;8.80;;;8.70;54.70;;;;;;5027686;28;20190;-41
2022/03/13 04:53:13;;;;;;;11.23;9.03;;;8.70;54.70;;;;;;5014005;28;20220;-41
2022/03/13 04:55:39;;;;;;;11.60;8.83;;;8.70;54.50;;;;;;5025586;28;20425;-41
2022/03/13 04:58:05;;;;;;;12.23;8.97;;;8.60;54.40;;;;;;5028398;28;20465;-40
2022/03/13 05:00:32;;;;;;;12.90;9.20;;;8.70;54.60;;;;;;5027610;28;20548;-41
2022/03/13 05:02:59;;;;;;;11.27;8.70;;;8.70;55.50;;;;;;5028565;28;20781;-41
2022/03/13 05:05:25;;;;;;;15.10;9.27;;;8.60;55.10;;;;;;5028282;28;20831;-42
2022/03/13 05:07:50;;;;;;;10.97;9.03;;;8.50;55.10;;;;;;5016215;28;20442;-42
2022/03/13 05:10:18;;;;;;;10.97;8.97;;;8.50;55.50;;;;;;5026930;28;20190;-40
2022/03/13 05:12:44;;;;;;;10.63;8.67;;;8.60;55.20;;;;;;5023327;28;20607;-41
2022/03/13 05:15:10;;;;;;;12.70;9.17;;;8.60;54.80;;;;;;5027874;28;20516;-42
2022/03/13 05:17:36;;;;;;;12.80;9.53;;;8.80;55.20;;;;;;5027908;28;20516;-40
2022/03/13 05:20:02;;;;;;;11.87;8.93;;;8.50;54.70;;;;;;5027192;28;20417;-41
2022/03/13 05:22:28;;;;;;;9.63;8.63;;;8.60;54.50;;;;;;5020874;28;20203;-42
2022/03/13 05:24:54;;;;;;;10.53;8.13;;;8.60;54.90;;;;;;5026639;28;20916;-40
2022/03/13 05:27:20;;;;;;;11.80;8.70;;;8.40;54.60;;;;;;5027447;28;20189;-39
2022/03/13 05:29:46;;;;;;;11.67;8.67;;;8.60;55.00;;;;;;5027255;28;20421;-42
2022/03/13 05:32:12;;;;;;;11.27;8.37;;;8.30;54.80;;;;;;5026141;28;20201;-40
2022/03/13 05:34:39;;;;;;;10.87;8.40;;;8.40;55.40;;;;;;5027969;28;20429;-42
2022/03/13 05:37:06;;;;;;;10.60;8.20;;;8.40;55.10;;;;;;5021154;28;20437;-40
2022/03/13 05:39:32;;;;;;;12.50;8.73;;;8.10;55.00;;;;;;5023478;28;20468;-40
2022/03/13 05:41:59;;;;;;;11.37;8.60;;;8.30;55.40;;;;;;5025799;28;20805;-42
2022/03/13 05:44:25;;;;;;;12.77;9.00;;;8.20;55.60;;;;;;5027709;28;20190;-40
2022/03/13 05:46:50;;;;;;;9.90;7.97;;;8.10;55.80;;;;;;5031765;28;20431;-42
2022/03/13 05:49:16;;;;;;;12.40;8.57;;;8.30;55.70;;;;;;5047486;28;20790;-41
2022/03/13 05:51:42;;;;;;;11.10;9.20;;;8.20;55.80;;;;;;5039476;28;20202;-41
2022/03/13 05:54:09;;;;;;;17.53;9.40;;;8.10;55.80;;;;;;5020619;28;20633;-41
2022/03/13 05:56:36;;;;;;;11.40;8.73;;;8.20;55.30;;;;;;5025535;28;20855;-43
2022/03/13 05:59:02;;;;;;;11.50;8.70;;;8.20;55.00;;;;;;5027042;28;20464;-42
2022/03/13 06:01:27;;;;;;;13.33;9.87;;;8.50;54.90;;;;;;5026707;28;20432;-41
2022/03/13 06:03:53;;;;;;;11.40;9.10;;;8.40;54.20;;;;;;5027157;28;20559;-40
2022/03/13 06:06:20;;;;;;;10.33;8.47;;;8.50;54.30;;;;;;5025837;28;20186;-41
2022/03/13 06:08:46;;;;;;;12.87;9.43;;;8.40;53.60;;;;;;5019692;28;20469;-40
2022/03/13 06:11:12;;;;;;;12.67;8.80;;;8.50;53.90;;;;;;5026819;28;20497;-40
2022/03/13 06:13:38;;;;;;;10.17;9.00;;;8.60;53.70;;;;;;5027001;28;20987;-40
2022/03/13 06:16:04;;;;;;;12.27;8.63;;;8.40;53.60;;;;;;5027299;28;20605;-40
2022/03/13 06:18:32;;;;;;;11.20;8.90;;;8.50;53.60;;;;;;5026961;28;20214;-41
2022/03/13 06:20:58;;;;;;;11.70;9.20;;;8.60;53.50;;;;;;5026858;28;20500;-44
2022/03/13 06:23:24;;;;;;;10.77;8.60;;;8.40;53.90;;;;;;5021877;28;20433;-41
2022/03/13 06:25:50;;;;;;;11.37;8.40;;;8.60;54.90;;;;;;5027250;28;20842;-42
2022/03/13 06:28:18;;;;;;;12.37;9.07;;;8.40;54.50;;;;;;5026908;28;20943;-41
2022/03/13 06:30:44;;;;;;;13.20;8.43;;;8.80;54.30;;;;;;5026551;28;20421;-40
2022/03/13 06:33:10;;;;;;;10.40;7.67;;;8.40;54.80;;;;;;5026919;28;20840;-42
2022/03/13 06:35:35;;;;;;;10.27;8.90;;;8.80;54.70;;;;;;5027230;28;20193;-40
2022/03/13 06:38:01;;;;;;;13.90;10.03;;;8.90;54.10;;;;;;5015483;28;20800;-41
2022/03/13 06:40:28;;;;;;;12.03;9.27;;;8.90;53.40;;;;;;5023707;28;20694;-40
2022/03/13 06:42:55;;;;;;;13.60;9.13;;;8.90;53.30;;;;;;5026882;28;20226;-41
2022/03/13 06:45:22;;;;;;;10.40;8.70;;;9.20;53.40;;;;;;5026763;28;20482;-40
2022/03/13 06:47:51;;;;;;;12.80;8.67;;;9.20;52.70;;;;;;5027044;28;20527;-44
2022/03/13 06:50:20;;;;;;;11.60;9.00;;;9.20;53.00;;;;;;5026391;28;20429;-40
2022/03/13 06:52:47;;;;;;;10.37;8.67;;;9.10;53.00;;;;;;5018201;28;20499;-40
2022/03/13 06:55:14;;;;;;;13.37;9.10;;;9.30;53.10;;;;;;5023762;28;20787;-41
2022/03/13 06:57:40;;;;;;;11.83;9.53;;;9.30;53.80;;;;;;5026730;28;20449;-40
2022/03/13 07:00:07;;;;;;;12.73;9.17;;;9.30;53.20;;;;;;5026248;28;20437;-41
2022/03/13 07:02:32;;;;;;;10.00;8.57;;;9.30;53.20;;;;;;5025257;28;20985;-40
2022/03/13 07:04:58;;;;;;;11.70;9.00;;;9.30;53.20;;;;;;5005779;28;20429;-43
2022/03/13 07:07:24;;;;;;;12.87;9.07;;;9.30;53.20;;;;;;5014024;28;20689;-41
2022/03/13 07:09:49;;;;;;;11.97;9.23;;;9.60;53.50;;;;;;5018322;28;20189;-40
2022/03/13 07:12:16;;;;;;;10.80;9.27;;;9.40;53.50;;;;;;5030299;28;20668;-40
2022/03/13 07:14:46;;;;;;;10.87;9.23;;;9.50;54.10;;;;;;5029987;28;20541;-41
2022/03/13 07:17:16;;;;;;;11.80;9.80;;;9.60;54.10;;;;;;5028836;28;20900;-40
2022/03/13 07:19:45;;;;;;;12.00;8.43;;;9.70;54.20;;;;;;5029581;28;20828;-41
2022/03/13 07:22:12;;;;;;;14.17;10.80;;;9.70;53.70;;;;;;5027996;28;20575;-41
2022/03/13 07:24:38;;;;;;;14.27;9.43;;;9.70;54.00;;;;;;5021164;28;20416;-42
2022/03/13 07:27:04;;;;;;;12.23;9.63;;;9.90;53.70;;;;;;5029900;28;20459;-41
2022/03/13 07:29:30;;;;;;;12.13;9.10;;;9.80;53.60;;;;;;5029892;28;20923;-40
2022/03/13 07:31:56;;;;;;;12.30;9.10;;;9.80;54.10;;;;;;5028900;28;20746;-42
2022/03/13 07:34:27;;;;;;;12.83;9.70;;;9.90;54.20;;;;;;5028904;28;20557;-40
2022/03/13 07:36:54;;;;;;;12.10;9.80;;;10.00;53.60;;;;;;5029682;28;20424;-42
2022/03/13 07:39:21;;;;;;;13.63;9.10;;;10.00;53.00;;;;;;5022020;28;20469;-40
2022/03/13 07:41:47;;;;;;;10.97;9.77;;;9.90;54.00;;;;;;5028781;28;20425;-41
2022/03/13 07:44:13;;;;;;;11.23;9.90;;;9.80;54.40;;;;;;5029442;28;20437;-40
2022/03/13 07:46:39;;;;;;;14.40;10.17;;;10.00;53.20;;;;;;5029656;28;20422;-40
2022/03/13 07:49:05;;;;;;;13.50;10.37;;;10.30;54.00;;;;;;5029775;28;21092;-41
2022/03/13 07:51:33;;;;;;;13.13;10.70;;;10.20;53.90;;;;;;5029015;28;20194;-44
2022/03/13 07:53:59;;;;;;;16.83;9.23;;;10.30;53.00;;;;;;5019473;28;20590;-40
2022/03/13 07:56:25;;;;;;;13.30;9.93;;;10.40;52.40;;;;;;5027563;28;20437;-41
2022/03/13 07:58:50;;;;;;;14.37;9.90;;;10.70;52.80;;;;;;5029161;28;20209;-40
2022/03/13 08:01:16;;;;;;;12.30;10.33;;;10.70;51.70;;;;;;5014095;28;20479;-40
2022/03/13 08:03:44;;;;;;;13.10;10.70;;;10.70;52.00;;;;;;5048947;28;20636;-40
2022/03/13 08:06:10;;;;;;;12.83;10.30;;;10.70;52.10;;;;;;5049465;28;20194;-42
2022/03/13 08:08:36;;;;;;;13.67;10.13;;;10.60;51.90;;;;;;5027338;28;20434;-40
2022/03/13 08:11:02;;;;;;;13.00;10.90;;;10.50;52.00;;;;;;5028435;28;20422;-40
2022/03/13 08:13:28;;;;;;;13.53;10.57;;;10.60;52.00;;;;;;5028628;28;20421;-40
2022/03/13 08:15:53;;;;;;;12.20;9.97;;;10.60;52.40;;;;;;5029215;28;20421;-40
2022/03/13 08:18:20;;;;;;;16.67;11.03;;;10.60;52.80;;;;;;5029106;28;20223;-41
2022/03/13 08:20:46;;;;;;;12.00;9.97;;;10.60;52.50;;;;;;5028594;28;20675;-40
2022/03/13 08:23:11;;;;;;;11.03;9.13;;;10.90;53.00;;;;;;5023450;28;20510;-40
2022/03/13 08:25:38;;;;;;;15.00;11.70;;;10.70;52.50;;;;;;5025290;28;20421;-41
2022/03/13 08:28:03;;;;;;;13.10;10.33;;;10.60;52.90;;;;;;5028611;28;20236;-40
2022/03/13 08:30:29;;;;;;;14.57;11.03;;;10.80;52.90;;;;;;5028472;28;20943;-41
2022/03/13 08:32:55;;;;;;;14.20;10.60;;;10.90;53.00;;;;;;5028684;28;20429;-42
2022/03/13 08:35:21;;;;;;;15.50;10.37;;;10.90;53.30;;;;;;5028881;28;20421;-40
2022/03/13 08:37:47;;;;;;;15.53;10.73;;;11.10;53.30;;;;;;5026298;28;20351;-40
2022/03/13 08:40:13;;;;;;;13.60;10.97;;;11.00;53.90;;;;;;5022369;28;20590;-41
2022/03/13 08:42:39;;;;;;;12.07;9.87;;;11.10;53.60;;;;;;5028419;28;20273;-40
2022/03/13 08:45:05;;;;;;;16.00;11.13;;;11.20;53.80;;;;;;5028504;28;20900;-40
2022/03/13 08:47:31;;;;;;;13.77;10.23;;;11.50;53.80;;;;;;5028599;28;20333;-41
2022/03/13 08:49:57;;;;;;;13.90;10.60;;;11.90;54.00;;;;;;5026535;28;20421;-41
2022/03/13 08:52:22;;;;;;;14.63;11.07;;;11.90;53.80;;;;;;5028555;28;20417;-40
2022/03/13 08:54:48;;;;;;;14.63;11.07;;;12.10;54.30;;;;;;5018263;28;20251;-42
2022/03/13 08:57:14;;;;;;;15.03;11.10;;;12.40;54.70;;;;;;5028065;28;20223;-41
2022/03/13 08:59:41;;;;;;;13.27;10.80;;;12.50;54.00;;;;;;5026349;28;20563;-40
2022/03/13 09:02:09;;;;;;;14.57;11.47;;;12.60;54.00;;;;;;5028170;28;20423;-40
2022/03/13 09:04:35;;;;;;;13.57;11.67;;;12.70;54.40;;;;;;5028095;28;20417;-42
2022/03/13 09:07:01;;;;;;;16.03;11.83;;;12.90;54.70;;;;;;5028286;28;20417;-40
2022/03/13 09:09:27;;;;;;;14.10;11.50;;;13.10;55.00;;;;;;5016340;28;20446;-40
2022/03/13 09:11:53;;;;;;;13.90;11.17;;;13.20;56.10;;;;;;5026069;28;20432;-42
2022/03/13 09:14:19;;;;;;;15.20;11.63;;;13.40;54.50;;;;;;5027556;28;20800;-40
2022/03/13 09:16:45;;;;;;;22.03;13.50;;;13.60;55.10;;;;;;5027938;28;20421;-40
2022/03/13 09:19:12;;;;;;;15.50;11.53;;;13.80;55.60;;;;;;5027851;28;20214;-41
2022/03/13 09:21:38;;;;;;;15.10;11.90;;;14.00;55.20;;;;;;5027070;28;20522;-42
2022/03/13 09:24:08;;;;;;;15.97;12.67;;;14.00;54.60;;;;;;5023633;28;20433;-42
2022/03/13 09:26:39;;;;;;;24.60;11.93;;;14.00;54.40;;;;;;5023714;28;20417;-43
2022/03/13 09:29:05;;;;;;;16.13;13.03;;;14.00;55.30;;;;;;5027765;28;20923;-45
2022/03/13 09:31:31;;;;;;;17.27;12.70;;;13.90;55.00;;;;;;5026947;28;20762;-41
2022/03/13 09:33:57;;;;;;;15.10;12.30;;;13.90;55.50;;;;;;5025911;28;20480;-44
2022/03/13 09:36:24;;;;;;;15.47;12.33;;;13.70;56.00;;;;;;5006679;28;20937;-43
2022/03/13 09:38:50;;;;;;;14.80;11.80;;;13.70;56.20;;;;;;5019629;28;20523;-40
2022/03/13 09:41:16;;;;;;;15.00;12.07;;;13.80;56.50;;;;;;5021326;28;20425;-43
2022/03/13 09:43:42;;;;;;;15.37;12.33;;;13.90;56.90;;;;;;5027520;28;20727;-41
2022/03/13 09:46:08;;;;;;;16.10;11.80;;;14.10;56.60;;;;;;5027450;28;20409;-40
2022/03/13 09:48:37;;;;;;;16.00;12.50;;;14.40;57.00;;;;;;5027599;28;20435;-44
2022/03/13 09:51:04;;;;;;;15.00;12.07;;;14.70;57.30;;;;;;5026810;28;20989;-40
2022/03/13 09:53:37;;;;;;;15.90;12.67;;;15.00;56.00;;;;;;5021395;28;20470;-42
2022/03/13 09:56:05;;;;;;;15.67;12.53;;;15.00;56.00;;;;;;5022309;28;20437;-40
2022/03/13 09:58:31;;;;;;;16.37;13.00;;;15.00;56.40;;;;;;5022591;28;20453;-41
2022/03/13 10:00:58;;;;;;;16.53;12.33;;;15.30;56.40;;;;;;5026901;28;20436;-40
2022/03/13 10:03:23;;;;;;;14.67;12.70;;;15.40;55.80;;;;;;5027738;28;20421;-40
2022/03/13 10:05:51;;;;;;;17.00;12.10;;;15.50;55.50;;;;;;5027288;28;20429;-40
2022/03/13 10:08:18;;;;;;;14.90;11.80;;;15.60;56.10;;;;;;5026242;28;20381;-40
2022/03/13 10:10:45;;;;;;;14.50;11.80;;;15.80;55.90;;;;;;5017740;28;20822;-40
2022/03/13 10:13:15;;;;;;;17.17;12.27;;;15.90;56.30;;;;;;5025610;28;20409;-40
2022/03/13 10:15:48;;;;;;;15.00;11.90;;;16.10;56.30;;;;;;5027331;28;20464;-40
2022/03/13 10:18:19;;;;;;;15.17;12.03;;;16.10;56.80;;;;;;5026811;28;20547;-42
2022/03/13 10:20:48;;;;;;;16.17;12.63;;;16.20;56.50;;;;;;5026601;28;20464;-40
2022/03/13 10:23:19;;;;;;;14.23;11.60;;;16.20;57.30;;;;;;5036842;28;20470;-41
2022/03/13 10:25:49;;;;;;;14.90;12.40;;;16.40;57.70;;;;;;5017221;28;20455;-40
2022/03/13 10:28:18;;;;;;;14.47;12.00;;;16.50;57.40;;;;;;5026986;28;20417;-41
2022/03/13 10:30:47;;;;;;;14.70;11.73;;;16.50;56.90;;;;;;5026421;28;20440;-42
2022/03/13 10:33:13;;;;;;;15.60;12.23;;;16.50;57.10;;;;;;5026587;28;20833;-44
2022/03/13 10:35:40;;;;;;;13.70;11.00;;;16.60;57.20;;;;;;5027323;28;20424;-41
2022/03/13 10:38:14;;;;;;;17.20;12.23;;;16.80;58.30;;;;;;5026696;28;20449;-41
2022/03/13 10:40:40;;;;;;;14.60;12.47;;;16.90;58.10;;;;;;5015930;28;20563;-41
2022/03/13 10:43:09;;;;;;;14.77;11.57;;;17.00;57.40;;;;;;5005681;28;20521;-40
2022/03/13 10:45:49;;;;;;;14.40;10.60;;;17.10;56.50;;;;;;5011340;28;20252;-41
2022/03/13 10:48:21;;;;;;;13.40;11.80;;;17.20;56.80;;;;;;5030903;28;20823;-38
2022/03/13 10:50:52;;;;;;;13.30;11.30;;;17.30;56.80;;;;;;5030156;28;20433;-39
2022/03/13 10:53:20;;;;;;;12.40;10.70;;;17.30;57.30;;;;;;5029276;28;20425;-40
2022/03/13 10:56:07;;;;;;;13.37;12.00;;;17.40;56.70;;;;;;5018812;28;20457;-39
2022/03/13 10:58:38;;;;;;;14.90;11.37;;;17.30;56.30;;;;;;5026041;28;20491;-43
2022/03/13 11:01:16;;;;;;;12.77;10.90;;;17.20;56.90;;;;;;5030354;28;20421;-42
2022/03/13 11:03:56;;;;;;;12.40;9.87;;;17.30;57.80;;;;;;5030184;28;20428;-39
2022/03/13 11:06:24;;;;;;;17.33;11.53;;;17.40;58.30;;;;;;5030170;28;21308;-40
2022/03/13 11:08:53;;;;;;;11.17;9.67;;;17.40;58.40;;;;;;5028410;28;20431;-39
2022/03/13 11:11:19;;;;;;;11.73;10.07;;;17.50;59.10;;;;;;5016499;28;20465;-39
2022/03/13 11:13:54;;;;;;;12.20;10.70;;;17.50;59.30;;;;;;5028705;28;20425;-43
2022/03/13 11:16:25;;;;;;;12.23;10.53;;;17.50;58.70;;;;;;5029999;28;20519;-41
2022/03/13 11:18:53;;;;;;;12.03;10.70;;;17.40;59.00;;;;;;5029701;28;20816;-40
2022/03/13 11:21:23;;;;;;;10.93;9.90;;;17.40;59.40;;;;;;5029363;28;20485;-41
2022/03/13 11:23:49;;;;;;;12.10;9.77;;;17.40;59.40;;;;;;5042652;28;20421;-42
2022/03/13 11:26:18;;;;;;;13.43;11.07;;;17.40;58.60;;;;;;5018257;28;20475;-41
2022/03/13 11:28:45;;;;;;;12.93;10.43;;;17.50;58.60;;;;;;5029945;28;20421;-41
2022/03/13 11:31:33;;;;;;;13.67;10.80;;;17.50;57.60;;;;;;5029633;28;20507;-41
2022/03/13 11:34:12;;;;;;;14.37;11.07;;;17.50;57.70;;;;;;5029866;28;20417;-41
2022/03/13 11:36:40;;;;;;;13.93;11.00;;;17.70;58.00;;;;;;5029601;28;20995;-40
2022/03/13 11:39:07;;;;;;;14.30;11.70;;;17.60;57.40;;;;;;5027535;28;20472;-41
2022/03/13 11:41:44;;;;;;;12.27;10.90;;;17.70;58.00;;;;;;5018255;28;20793;-43
2022/03/13 11:44:20;;;;;;;12.07;10.30;;;17.90;58.30;;;;;;5034177;28;20426;-41
2022/03/13 11:46:51;;;;;;;12.63;11.33;;;17.70;57.80;;;;;;5041702;28;20557;-41
2022/03/13 11:49:39;;;;;;;11.20;10.10;;;17.60;57.40;;;;;;5044676;28;20494;-41
2022/03/13 11:52:16;;;;;;;12.20;10.47;;;17.60;58.30;;;;;;5049116;28;20478;-41
2022/03/13 11:54:45;;;;;;;14.87;10.23;;;17.60;58.10;;;;;;5036805;28;20532;-41
2022/03/13 11:57:15;;;;;;;11.90;10.17;;;17.50;58.30;;;;;;5023340;28;20469;-38
2022/03/13 11:59:42;;;;;;;11.33;10.10;;;17.50;58.50;;;;;;5028754;28;20468;-41
2022/03/13 12:02:11;;;;;;;12.50;9.80;;;17.50;58.50;;;;;;5029622;28;20493;-42
2022/03/13 12:04:37;;;;;;;15.40;11.30;;;17.60;57.80;;;;;;5027816;28;20494;-41
2022/03/13 12:07:06;;;;;;;11.17;9.60;;;17.50;58.20;;;;;;5027717;28;20425;-41
2022/03/13 12:09:43;;;;;;;11.97;10.07;;;17.60;58.60;;;;;;5024805;28;20282;-41
2022/03/13 12:12:14;;;;;;;10.67;9.17;;;17.80;58.70;;;;;;5022785;28;20432;-41
2022/03/13 12:15:05;;;;;;;11.53;9.57;;;18.00;58.00;;;;;;5027845;28;20421;-42
2022/03/13 12:17:47;;;;;;;12.10;10.47;;;18.20;57.50;;;;;;5027784;28;20429;-41
2022/03/13 12:20:26;;;;;;;14.50;10.40;;;18.30;57.90;;;;;;5028519;28;20823;-41
2022/03/13 12:22:53;;;;;;;10.87;8.83;;;18.40;57.80;;;;;;5034416;28;20478;-41
2022/03/13 12:25:27;;;;;;;10.83;9.73;;;18.50;57.70;;;;;;5032637;28;20428;-41
2022/03/13 12:27:56;;;;;;;11.37;9.40;;;18.40;56.90;;;;;;5028697;28;20456;-38
2022/03/13 12:30:30;;;;;;;10.53;8.13;;;18.50;57.30;;;;;;5028393;28;20448;-38
2022/03/13 12:32:58;;;;;;;10.07;9.10;;;18.50;56.80;;;;;;5028653;28;20425;-41
2022/03/13 12:35:24;;;;;;;10.17;7.83;;;18.40;57.20;;;;;;5028710;28;20873;-41
2022/03/13 12:37:55;;;;;;;8.47;7.70;;;18.40;56.00;;;;;;5028375;28;20543;-41
2022/03/13 12:40:23;;;;;;;9.80;8.80;;;18.30;57.00;;;;;;5021841;28;20793;-41